sensor_id;sensor_type;location;lat;lon;timestamp;temperature;humidity
37274;DHT22;23161;51.250;5.554;2022-12-17T00:00:48;-2.30;99.90
37274;DHT22;23161;51.250;5.554;2022-12-17T00:03:33;-2.40;99.90
37274;DHT22;23161;51.250;5.554;2022-12-17T00:06:18;-2.50;99.90
37274;DHT22;23161;51.250;5.554;2022-12-17T00:09:03;-2.50;99.90
37274;DHT22;23161;51.250;5.554;2022-12-17T00:11:49;-2.50;99.90
37274;DHT22;23161;51.250;5.554;2022-12-17T00:14:33;-2.60;99.90
37274;DHT22;23161;51.250;5.554;2022-12-17T00:17:18;-2.60;99.90
37274;DHT22;23161;51.250;5.554;2022-12-17T00:20:03;-2.60;99.90
37274;DHT22;23161;51.250;5.554;2022-12-17T00:22:48;-2.60;99.90
37274;DHT22;23161;51.250;5.554;2022-12-17T00:25:40;-2.70;99.90
37274;DHT22;23161;51.250;5.554;2022-12-17T00:28:25;-2.80;99.90
37274;DHT22;23161;51.250;5.554;2022-12-17T00:31:09;-2.90;99.90
37274;DHT22;23161;51.250;5.554;2022-12-17T00:33:54;-3.10;99.90
37274;DHT22;23161;51.250;5.554;2022-12-17T00:36:38;-3.20;99.90
37274;DHT22;23161;51.250;5.554;2022-12-17T00:39:22;-3.20;99.90
37274;DHT22;23161;51.250;5.554;2022-12-17T00:42:07;-3.30;99.90
37274;DHT22;23161;51.250;5.554;2022-12-17T00:44:51;-3.40;99.90
37274;DHT22;23161;51.250;5.554;2022-12-17T00:47:35;-3.30;99.90
37274;DHT22;23161;51.250;5.554;2022-12-17T00:50:28;-3.30;99.90
37274;DHT22;23161;51.250;5.554;2022-12-17T00:53:12;-3.10;99.90
37274;DHT22;23161;51.250;5.554;2022-12-17T00:55:56;-3.00;99.90
37274;DHT22;23161;51.250;5.554;2022-12-17T00:58:41;-3.00;99.90
37274;DHT22;23161;51.250;5.554;2022-12-17T01:01:26;-3.00;99.90
37274;DHT22;23161;51.250;5.554;2022-12-17T01:04:11;-3.00;99.90
37274;DHT22;23161;51.250;5.554;2022-12-17T01:06:57;-3.00;99.90
37274;DHT22;23161;51.250;5.554;2022-12-17T01:09:41;-3.10;99.90
37274;DHT22;23161;51.250;5.554;2022-12-17T01:12:25;-3.00;99.90
37274;DHT22;23161;51.250;5.554;2022-12-17T01:15:11;-3.00;99.90
37274;DHT22;23161;51.250;5.554;2022-12-17T01:17:55;-3.00;99.90
37274;DHT22;23161;51.250;5.554;2022-12-17T01:20:40;-3.00;99.90
37274;DHT22;23161;51.250;5.554;2022-12-17T01:23:24;-3.10;99.90
37274;DHT22;23161;51.250;5.554;2022-12-17T01:26:09;-3.10;99.90
37274;DHT22;23161;51.250;5.554;2022-12-17T01:28:56;-3.10;99.90
37274;DHT22;23161;51.250;5.554;2022-12-17T01:31:40;-3.00;99.90
37274;DHT22;23161;51.250;5.554;2022-12-17T01:34:24;-2.80;99.90
37274;DHT22;23161;51.250;5.554;2022-12-17T01:37:09;-2.80;99.90
37274;DHT22;23161;51.250;5.554;2022-12-17T01:39:53;-2.70;99.90
37274;DHT22;23161;51.250;5.554;2022-12-17T01:42:39;-2.70;99.90
37274;DHT22;23161;51.250;5.554;2022-12-17T01:45:25;-2.60;99.90
37274;DHT22;23161;51.250;5.554;2022-12-17T01:48:14;-2.60;99.90
37274;DHT22;23161;51.250;5.554;2022-12-17T01:50:59;-2.50;99.90
37274;DHT22;23161;51.250;5.554;2022-12-17T01:53:49;-2.50;99.90
37274;DHT22;23161;51.250;5.554;2022-12-17T01:56:40;-2.50;99.90
37274;DHT22;23161;51.250;5.554;2022-12-17T01:59:58;-2.60;99.90
37274;DHT22;23161;51.250;5.554;2022-12-17T02:02:44;-2.60;99.90
37274;DHT22;23161;51.250;5.554;2022-12-17T02:15:07;-2.70;99.90
37274;DHT22;23161;51.250;5.554;2022-12-17T02:17:58;-2.70;99.90
37274;DHT22;23161;51.250;5.554;2022-12-17T02:20:47;-2.70;99.90
37274;DHT22;23161;51.250;5.554;2022-12-17T02:23:44;-2.80;99.90
37274;DHT22;23161;51.250;5.554;2022-12-17T02:26:53;-2.80;99.90
37274;DHT22;23161;51.250;5.554;2022-12-17T02:29:42;-2.80;99.90
37274;DHT22;23161;51.250;5.554;2022-12-17T02:32:30;-2.80;99.90
37274;DHT22;23161;51.250;5.554;2022-12-17T02:35:24;-2.80;99.90
37274;DHT22;23161;51.250;5.554;2022-12-17T02:38:35;-2.70;99.90
37274;DHT22;23161;51.250;5.554;2022-12-17T02:41:35;-2.80;99.90
37274;DHT22;23161;51.250;5.554;2022-12-17T02:44:21;-2.80;99.90
37274;DHT22;23161;51.250;5.554;2022-12-17T02:47:08;-2.90;99.90
37274;DHT22;23161;51.250;5.554;2022-12-17T02:49:54;-2.90;99.90
37274;DHT22;23161;51.250;5.554;2022-12-17T02:52:44;-2.90;99.90
37274;DHT22;23161;51.250;5.554;2022-12-17T02:55:29;-2.90;99.90
37274;DHT22;23161;51.250;5.554;2022-12-17T02:58:13;-2.90;99.90
37274;DHT22;23161;51.250;5.554;2022-12-17T03:01:03;-3.00;99.90
37274;DHT22;23161;51.250;5.554;2022-12-17T03:03:47;-3.10;99.90
37274;DHT22;23161;51.250;5.554;2022-12-17T03:06:32;-3.20;99.90
37274;DHT22;23161;51.250;5.554;2022-12-17T03:09:16;-3.20;99.90
37274;DHT22;23161;51.250;5.554;2022-12-17T03:12:01;-3.10;99.90
37274;DHT22;23161;51.250;5.554;2022-12-17T03:14:45;-3.00;99.90
37274;DHT22;23161;51.250;5.554;2022-12-17T03:17:30;-3.00;99.90
37274;DHT22;23161;51.250;5.554;2022-12-17T03:20:14;-2.90;99.90
37274;DHT22;23161;51.250;5.554;2022-12-17T03:23:08;-2.90;99.90
37274;DHT22;23161;51.250;5.554;2022-12-17T03:25:56;-2.90;99.90
37274;DHT22;23161;51.250;5.554;2022-12-17T03:28:40;-2.90;99.90
37274;DHT22;23161;51.250;5.554;2022-12-17T03:31:25;-2.80;99.90
37274;DHT22;23161;51.250;5.554;2022-12-17T03:34:09;-2.80;99.90
37274;DHT22;23161;51.250;5.554;2022-12-17T03:36:54;-2.70;99.90
37274;DHT22;23161;51.250;5.554;2022-12-17T03:39:39;-2.70;99.90
37274;DHT22;23161;51.250;5.554;2022-12-17T03:42:24;-2.70;99.90
37274;DHT22;23161;51.250;5.554;2022-12-17T03:45:08;-2.60;99.90
37274;DHT22;23161;51.250;5.554;2022-12-17T03:48:09;-2.70;99.90
37274;DHT22;23161;51.250;5.554;2022-12-17T03:50:54;-2.60;99.90
37274;DHT22;23161;51.250;5.554;2022-12-17T03:53:39;-2.60;99.90
37274;DHT22;23161;51.250;5.554;2022-12-17T03:56:24;-2.50;99.90
37274;DHT22;23161;51.250;5.554;2022-12-17T03:59:09;-2.50;99.90
37274;DHT22;23161;51.250;5.554;2022-12-17T04:01:53;-2.50;99.90
37274;DHT22;23161;51.250;5.554;2022-12-17T04:04:38;-2.40;99.90
37274;DHT22;23161;51.250;5.554;2022-12-17T04:07:22;-2.40;99.90
37274;DHT22;23161;51.250;5.554;2022-12-17T04:10:09;-2.40;99.90
37274;DHT22;23161;51.250;5.554;2022-12-17T04:12:53;-2.40;99.90
37274;DHT22;23161;51.250;5.554;2022-12-17T04:15:38;-2.30;99.90
37274;DHT22;23161;51.250;5.554;2022-12-17T04:18:22;-2.30;99.90
37274;DHT22;23161;51.250;5.554;2022-12-17T04:21:07;-2.30;99.90
37274;DHT22;23161;51.250;5.554;2022-12-17T04:23:52;-2.30;99.90
37274;DHT22;23161;51.250;5.554;2022-12-17T04:26:36;-2.40;99.90
37274;DHT22;23161;51.250;5.554;2022-12-17T04:29:21;-2.40;99.90
37274;DHT22;23161;51.250;5.554;2022-12-17T04:32:05;-2.40;99.90
37274;DHT22;23161;51.250;5.554;2022-12-17T04:34:50;-2.30;99.90
37274;DHT22;23161;51.250;5.554;2022-12-17T04:37:34;-2.30;99.90
37274;DHT22;23161;51.250;5.554;2022-12-17T04:40:19;-2.30;99.90
37274;DHT22;23161;51.250;5.554;2022-12-17T04:43:08;-2.30;99.90
37274;DHT22;23161;51.250;5.554;2022-12-17T04:45:53;-2.30;99.90
37274;DHT22;23161;51.250;5.554;2022-12-17T04:48:37;-2.30;99.90
37274;DHT22;23161;51.250;5.554;2022-12-17T04:51:22;-2.30;99.90
37274;DHT22;23161;51.250;5.554;2022-12-17T04:54:06;-2.30;99.90
37274;DHT22;23161;51.250;5.554;2022-12-17T04:56:51;-2.30;99.90
37274;DHT22;23161;51.250;5.554;2022-12-17T04:59:35;-2.20;99.90
37274;DHT22;23161;51.250;5.554;2022-12-17T05:02:20;-2.30;99.90
37274;DHT22;23161;51.250;5.554;2022-12-17T05:05:05;-2.20;99.90
37274;DHT22;23161;51.250;5.554;2022-12-17T05:07:52;-2.20;99.90
37274;DHT22;23161;51.250;5.554;2022-12-17T05:10:37;-2.20;99.90
37274;DHT22;23161;51.250;5.554;2022-12-17T05:13:21;-2.10;99.90
37274;DHT22;23161;51.250;5.554;2022-12-17T05:16:06;-2.20;99.90
37274;DHT22;23161;51.250;5.554;2022-12-17T05:18:50;-2.20;99.90
37274;DHT22;23161;51.250;5.554;2022-12-17T05:21:34;-2.20;99.90
37274;DHT22;23161;51.250;5.554;2022-12-17T05:24:19;-2.10;99.90
37274;DHT22;23161;51.250;5.554;2022-12-17T05:27:03;-2.10;99.90
37274;DHT22;23161;51.250;5.554;2022-12-17T05:29:48;-2.10;99.90
37274;DHT22;23161;51.250;5.554;2022-12-17T05:32:32;-2.00;99.90
37274;DHT22;23161;51.250;5.554;2022-12-17T05:35:17;-2.00;99.90
37274;DHT22;23161;51.250;5.554;2022-12-17T05:38:03;-2.00;99.90
37274;DHT22;23161;51.250;5.554;2022-12-17T05:40:48;-1.90;99.90
37274;DHT22;23161;51.250;5.554;2022-12-17T05:43:33;-1.90;99.90
37274;DHT22;23161;51.250;5.554;2022-12-17T05:46:17;-1.80;99.90
37274;DHT22;23161;51.250;5.554;2022-12-17T05:49:01;-1.80;99.90
37274;DHT22;23161;51.250;5.554;2022-12-17T05:51:46;-1.80;99.90
37274;DHT22;23161;51.250;5.554;2022-12-17T05:54:30;-1.70;99.90
37274;DHT22;23161;51.250;5.554;2022-12-17T05:57:15;-1.70;99.90
37274;DHT22;23161;51.250;5.554;2022-12-17T05:59:59;-1.70;99.90
37274;DHT22;23161;51.250;5.554;2022-12-17T06:02:44;-1.70;99.90
37274;DHT22;23161;51.250;5.554;2022-12-17T06:05:29;-1.70;99.90
37274;DHT22;23161;51.250;5.554;2022-12-17T06:08:13;-1.70;99.90
37274;DHT22;23161;51.250;5.554;2022-12-17T06:10:58;-1.70;99.90
37274;DHT22;23161;51.250;5.554;2022-12-17T06:13:43;-1.70;99.90
37274;DHT22;23161;51.250;5.554;2022-12-17T06:16:27;-1.70;99.90
37274;DHT22;23161;51.250;5.554;2022-12-17T06:19:12;-1.60;99.90
37274;DHT22;23161;51.250;5.554;2022-12-17T06:21:57;-1.60;99.90
37274;DHT22;23161;51.250;5.554;2022-12-17T06:24:41;-1.60;99.90
37274;DHT22;23161;51.250;5.554;2022-12-17T06:27:25;-1.50;99.90
37274;DHT22;23161;51.250;5.554;2022-12-17T06:30:10;-1.50;99.90
37274;DHT22;23161;51.250;5.554;2022-12-17T06:33:09;-1.50;99.90
37274;DHT22;23161;51.250;5.554;2022-12-17T06:35:55;-1.50;99.90
37274;DHT22;23161;51.250;5.554;2022-12-17T06:38:40;-1.50;99.90
37274;DHT22;23161;51.250;5.554;2022-12-17T06:41:32;-1.50;99.90
37274;DHT22;23161;51.250;5.554;2022-12-17T06:44:16;-1.50;99.90
37274;DHT22;23161;51.250;5.554;2022-12-17T06:47:00;-1.40;99.90
37274;DHT22;23161;51.250;5.554;2022-12-17T06:49:45;-1.40;99.90
37274;DHT22;23161;51.250;5.554;2022-12-17T06:52:29;-1.40;99.90
37274;DHT22;23161;51.250;5.554;2022-12-17T06:55:13;-1.40;99.90
37274;DHT22;23161;51.250;5.554;2022-12-17T06:57:59;-1.40;99.90
37274;DHT22;23161;51.250;5.554;2022-12-17T07:00:44;-1.40;99.90
37274;DHT22;23161;51.250;5.554;2022-12-17T07:03:28;-1.40;99.90
37274;DHT22;23161;51.250;5.554;2022-12-17T07:06:13;-1.40;99.90
37274;DHT22;23161;51.250;5.554;2022-12-17T07:09:01;-1.40;99.90
37274;DHT22;23161;51.250;5.554;2022-12-17T07:11:45;-1.30;99.90
37274;DHT22;23161;51.250;5.554;2022-12-17T07:14:30;-1.30;99.90
37274;DHT22;23161;51.250;5.554;2022-12-17T07:17:14;-1.30;99.90
37274;DHT22;23161;51.250;5.554;2022-12-17T07:19:58;-1.30;99.90
37274;DHT22;23161;51.250;5.554;2022-12-17T07:22:43;-1.30;99.90
37274;DHT22;23161;51.250;5.554;2022-12-17T07:25:27;-1.20;99.90
37274;DHT22;23161;51.250;5.554;2022-12-17T07:28:12;-1.20;99.90
37274;DHT22;23161;51.250;5.554;2022-12-17T07:30:56;-1.00;99.90
37274;DHT22;23161;51.250;5.554;2022-12-17T07:33:40;-1.20;99.90
37274;DHT22;23161;51.250;5.554;2022-12-17T07:36:25;-1.20;99.90
37274;DHT22;23161;51.250;5.554;2022-12-17T07:39:09;-1.20;99.90
37274;DHT22;23161;51.250;5.554;2022-12-17T07:41:54;-1.20;99.90
37274;DHT22;23161;51.250;5.554;2022-12-17T07:44:39;-1.30;99.90
37274;DHT22;23161;51.250;5.554;2022-12-17T07:47:23;-1.30;99.90
37274;DHT22;23161;51.250;5.554;2022-12-17T07:50:07;-1.30;99.90
37274;DHT22;23161;51.250;5.554;2022-12-17T07:53:03;-1.20;99.90
37274;DHT22;23161;51.250;5.554;2022-12-17T07:55:48;-1.10;99.90
37274;DHT22;23161;51.250;5.554;2022-12-17T07:58:52;-1.20;99.90
37274;DHT22;23161;51.250;5.554;2022-12-17T08:01:36;-1.20;99.90
37274;DHT22;23161;51.250;5.554;2022-12-17T08:04:21;-1.20;99.90
37274;DHT22;23161;51.250;5.554;2022-12-17T08:07:05;-1.20;99.90
37274;DHT22;23161;51.250;5.554;2022-12-17T08:09:49;-1.20;99.90
37274;DHT22;23161;51.250;5.554;2022-12-17T08:12:34;-1.10;99.90
37274;DHT22;23161;51.250;5.554;2022-12-17T08:15:18;-1.20;99.90
37274;DHT22;23161;51.250;5.554;2022-12-17T08:18:03;-1.10;99.90
37274;DHT22;23161;51.250;5.554;2022-12-17T08:20:48;-1.10;99.90
37274;DHT22;23161;51.250;5.554;2022-12-17T08:23:33;-1.20;99.90
37274;DHT22;23161;51.250;5.554;2022-12-17T08:26:17;-1.20;99.90
37274;DHT22;23161;51.250;5.554;2022-12-17T08:29:02;-1.20;99.90
37274;DHT22;23161;51.250;5.554;2022-12-17T08:31:46;-1.10;99.90
37274;DHT22;23161;51.250;5.554;2022-12-17T08:34:30;-1.20;99.90
37274;DHT22;23161;51.250;5.554;2022-12-17T08:37:15;-1.30;99.90
37274;DHT22;23161;51.250;5.554;2022-12-17T08:39:59;-1.30;99.90
37274;DHT22;23161;51.250;5.554;2022-12-17T08:42:44;-1.20;99.90
37274;DHT22;23161;51.250;5.554;2022-12-17T08:45:28;-1.20;99.90
37274;DHT22;23161;51.250;5.554;2022-12-17T08:48:12;-1.10;99.90
37274;DHT22;23161;51.250;5.554;2022-12-17T08:50:57;-1.10;99.90
37274;DHT22;23161;51.250;5.554;2022-12-17T08:53:41;-1.10;99.90
37274;DHT22;23161;51.250;5.554;2022-12-17T08:56:26;-1.00;99.90
37274;DHT22;23161;51.250;5.554;2022-12-17T08:59:10;-1.20;99.90
37274;DHT22;23161;51.250;5.554;2022-12-17T09:01:55;-1.30;99.90
37274;DHT22;23161;51.250;5.554;2022-12-17T09:04:39;-1.30;99.90
37274;DHT22;23161;51.250;5.554;2022-12-17T09:07:24;-1.20;99.90
37274;DHT22;23161;51.250;5.554;2022-12-17T09:10:09;-1.20;99.90
37274;DHT22;23161;51.250;5.554;2022-12-17T09:12:53;-1.30;99.90
37274;DHT22;23161;51.250;5.554;2022-12-17T09:15:37;-1.20;99.90
37274;DHT22;23161;51.250;5.554;2022-12-17T09:18:22;-1.10;99.90
37274;DHT22;23161;51.250;5.554;2022-12-17T09:21:07;-1.10;99.90
37274;DHT22;23161;51.250;5.554;2022-12-17T09:23:52;-1.20;99.90
37274;DHT22;23161;51.250;5.554;2022-12-17T09:26:36;-1.20;99.90
37274;DHT22;23161;51.250;5.554;2022-12-17T09:29:20;-1.20;99.90
37274;DHT22;23161;51.250;5.554;2022-12-17T09:32:05;-1.30;99.90
37274;DHT22;23161;51.250;5.554;2022-12-17T09:34:49;-1.30;99.90
37274;DHT22;23161;51.250;5.554;2022-12-17T09:37:34;-1.30;99.90
37274;DHT22;23161;51.250;5.554;2022-12-17T09:40:22;-1.40;99.90
37274;DHT22;23161;51.250;5.554;2022-12-17T09:46:50;-1.20;99.90
37274;DHT22;23161;51.250;5.554;2022-12-17T09:49:36;-1.20;99.90
37274;DHT22;23161;51.250;5.554;2022-12-17T09:52:25;-1.40;99.90
37274;DHT22;23161;51.250;5.554;2022-12-17T09:55:22;-1.50;99.90
37274;DHT22;23161;51.250;5.554;2022-12-17T09:58:28;-1.40;99.90
37274;DHT22;23161;51.250;5.554;2022-12-17T10:01:22;-1.30;99.90
37274;DHT22;23161;51.250;5.554;2022-12-17T10:04:15;-1.20;99.90
37274;DHT22;23161;51.250;5.554;2022-12-17T10:07:00;-1.10;99.90
37274;DHT22;23161;51.250;5.554;2022-12-17T10:09:49;-1.30;99.90
37274;DHT22;23161;51.250;5.554;2022-12-17T10:12:34;-1.30;99.90
37274;DHT22;23161;51.250;5.554;2022-12-17T10:15:18;-1.20;99.90
37274;DHT22;23161;51.250;5.554;2022-12-17T10:18:09;-1.30;99.90
37274;DHT22;23161;51.250;5.554;2022-12-17T10:20:57;-1.20;99.90
37274;DHT22;23161;51.250;5.554;2022-12-17T10:23:43;-1.10;99.90
37274;DHT22;23161;51.250;5.554;2022-12-17T10:26:33;-1.10;99.90
37274;DHT22;23161;51.250;5.554;2022-12-17T10:29:20;-0.90;99.90
37274;DHT22;23161;51.250;5.554;2022-12-17T10:32:23;-0.80;99.90
37274;DHT22;23161;51.250;5.554;2022-12-17T10:35:23;-0.90;99.90
37274;DHT22;23161;51.250;5.554;2022-12-17T10:38:19;-0.90;99.90
37274;DHT22;23161;51.250;5.554;2022-12-17T10:41:24;-0.80;99.90
37274;DHT22;23161;51.250;5.554;2022-12-17T10:47:17;-1.00;99.90
37274;DHT22;23161;51.250;5.554;2022-12-17T10:50:28;-1.00;99.90
37274;DHT22;23161;51.250;5.554;2022-12-17T10:53:18;-0.90;99.90
37274;DHT22;23161;51.250;5.554;2022-12-17T10:56:04;-0.90;99.90
37274;DHT22;23161;51.250;5.554;2022-12-17T10:58:51;-0.90;99.90
37274;DHT22;23161;51.250;5.554;2022-12-17T11:01:38;-1.00;99.90
37274;DHT22;23161;51.250;5.554;2022-12-17T11:04:31;-1.00;99.90
37274;DHT22;23161;51.250;5.554;2022-12-17T11:07:30;-0.90;99.90
37274;DHT22;23161;51.250;5.554;2022-12-17T11:10:30;-1.00;99.90
37274;DHT22;23161;51.250;5.554;2022-12-17T11:13:22;-1.00;99.90
37274;DHT22;23161;51.250;5.554;2022-12-17T11:16:26;-1.00;99.90
37274;DHT22;23161;51.250;5.554;2022-12-17T11:19:15;-0.90;99.90
37274;DHT22;23161;51.250;5.554;2022-12-17T11:22:11;-0.90;99.90
37274;DHT22;23161;51.250;5.554;2022-12-17T11:25:05;-1.00;99.90
37274;DHT22;23161;51.250;5.554;2022-12-17T11:28:03;-1.10;99.90
37274;DHT22;23161;51.250;5.554;2022-12-17T11:30:53;-0.90;99.90
37274;DHT22;23161;51.250;5.554;2022-12-17T11:33:52;-1.00;99.90
37274;DHT22;23161;51.250;5.554;2022-12-17T11:36:49;-0.90;99.90
37274;DHT22;23161;51.250;5.554;2022-12-17T11:42:43;-1.20;99.90
37274;DHT22;23161;51.250;5.554;2022-12-17T11:48:38;-1.10;99.90
37274;DHT22;23161;51.250;5.554;2022-12-17T11:51:46;-1.00;99.90
37274;DHT22;23161;51.250;5.554;2022-12-17T11:57:45;-1.10;99.90
37274;DHT22;23161;51.250;5.554;2022-12-17T12:00:43;-1.20;99.90
37274;DHT22;23161;51.250;5.554;2022-12-17T12:04:04;-1.00;99.90
37274;DHT22;23161;51.250;5.554;2022-12-17T12:07:13;-1.00;99.90
37274;DHT22;23161;51.250;5.554;2022-12-17T12:10:05;-1.10;99.90
37274;DHT22;23161;51.250;5.554;2022-12-17T12:14:03;-1.20;99.90
37274;DHT22;23161;51.250;5.554;2022-12-17T12:16:21;-1.20;99.90
37274;DHT22;23161;51.250;5.554;2022-12-17T12:33:57;-1.10;99.90
37274;DHT22;23161;51.250;5.554;2022-12-17T12:36:44;-1.10;99.90
37274;DHT22;23161;51.250;5.554;2022-12-17T12:39:45;-1.20;99.90
37274;DHT22;23161;51.250;5.554;2022-12-17T12:43:22;-1.20;99.90
37274;DHT22;23161;51.250;5.554;2022-12-17T12:51:50;-1.20;99.90
37274;DHT22;23161;51.250;5.554;2022-12-17T12:54:53;-1.30;99.90
37274;DHT22;23161;51.250;5.554;2022-12-17T12:58:23;-1.10;99.90
37274;DHT22;23161;51.250;5.554;2022-12-17T13:19:43;-1.60;99.90
37274;DHT22;23161;51.250;5.554;2022-12-17T13:24:43;-1.50;99.90
37274;DHT22;23161;51.250;5.554;2022-12-17T13:35:49;-1.50;99.90
37274;DHT22;23161;51.250;5.554;2022-12-17T13:43:32;-1.50;99.90
37274;DHT22;23161;51.250;5.554;2022-12-17T13:45:59;-1.50;99.90
37274;DHT22;23161;51.250;5.554;2022-12-17T13:48:26;-1.50;99.90
37274;DHT22;23161;51.250;5.554;2022-12-17T13:50:58;-1.60;99.90
37274;DHT22;23161;51.250;5.554;2022-12-17T13:53:25;-0.10;99.90
37274;DHT22;23161;51.250;5.554;2022-12-17T13:55:54;-1.30;99.90
37274;DHT22;23161;51.250;5.554;2022-12-17T13:58:22;-1.30;99.90
37274;DHT22;23161;51.250;5.554;2022-12-17T14:00:49;-1.30;99.90
37274;DHT22;23161;51.250;5.554;2022-12-17T14:03:21;-1.40;99.90
37274;DHT22;23161;51.250;5.554;2022-12-17T14:05:47;-1.50;99.90
37274;DHT22;23161;51.250;5.554;2022-12-17T14:08:18;-1.50;99.90
37274;DHT22;23161;51.250;5.554;2022-12-17T14:10:50;-1.40;99.90
37274;DHT22;23161;51.250;5.554;2022-12-17T14:13:17;-1.40;99.90
37274;DHT22;23161;51.250;5.554;2022-12-17T14:15:50;-1.50;99.90
37274;DHT22;23161;51.250;5.554;2022-12-17T14:18:19;-1.60;99.90
37274;DHT22;23161;51.250;5.554;2022-12-17T14:20:46;-1.70;99.90
37274;DHT22;23161;51.250;5.554;2022-12-17T14:23:34;-1.60;99.90
37274;DHT22;23161;51.250;5.554;2022-12-17T14:26:00;-1.50;99.90
37274;DHT22;23161;51.250;5.554;2022-12-17T14:28:31;-1.60;99.90
37274;DHT22;23161;51.250;5.554;2022-12-17T14:33:35;-1.80;99.90
37274;DHT22;23161;51.250;5.554;2022-12-17T14:38:32;-2.00;99.90
37274;DHT22;23161;51.250;5.554;2022-12-17T14:41:12;-2.10;99.90
37274;DHT22;23161;51.250;5.554;2022-12-17T14:43:59;-2.00;99.90
37274;DHT22;23161;51.250;5.554;2022-12-17T14:46:26;-2.10;99.90
37274;DHT22;23161;51.250;5.554;2022-12-17T14:49:01;-2.10;99.90
37274;DHT22;23161;51.250;5.554;2022-12-17T14:51:36;-2.20;99.90
37274;DHT22;23161;51.250;5.554;2022-12-17T14:54:26;-2.40;99.90
37274;DHT22;23161;51.250;5.554;2022-12-17T14:56:58;-2.50;99.90
37274;DHT22;23161;51.250;5.554;2022-12-17T14:59:37;-2.50;99.90
37274;DHT22;23161;51.250;5.554;2022-12-17T15:04:33;-2.40;99.90
37274;DHT22;23161;51.250;5.554;2022-12-17T15:07:00;-2.50;99.90
37274;DHT22;23161;51.250;5.554;2022-12-17T15:09:26;-2.40;99.90
37274;DHT22;23161;51.250;5.554;2022-12-17T15:11:52;-2.50;99.90
37274;DHT22;23161;51.250;5.554;2022-12-17T15:14:17;-2.50;99.90
37274;DHT22;23161;51.250;5.554;2022-12-17T15:16:43;-2.40;99.90
37274;DHT22;23161;51.250;5.554;2022-12-17T15:19:10;-2.50;99.90
37274;DHT22;23161;51.250;5.554;2022-12-17T15:21:36;-2.50;99.90
37274;DHT22;23161;51.250;5.554;2022-12-17T15:24:02;-2.60;99.90
37274;DHT22;23161;51.250;5.554;2022-12-17T15:26:28;-2.60;99.90
37274;DHT22;23161;51.250;5.554;2022-12-17T15:28:54;-2.60;99.90
37274;DHT22;23161;51.250;5.554;2022-12-17T15:31:20;-2.50;99.90
37274;DHT22;23161;51.250;5.554;2022-12-17T15:33:45;-2.60;99.90
37274;DHT22;23161;51.250;5.554;2022-12-17T15:36:11;-2.50;99.90
37274;DHT22;23161;51.250;5.554;2022-12-17T15:38:38;-2.70;99.90
37274;DHT22;23161;51.250;5.554;2022-12-17T15:41:05;-2.70;99.90
37274;DHT22;23161;51.250;5.554;2022-12-17T15:43:51;-2.70;99.90
37274;DHT22;23161;51.250;5.554;2022-12-17T15:46:17;-2.70;99.90
37274;DHT22;23161;51.250;5.554;2022-12-17T15:48:42;-2.70;99.90
37274;DHT22;23161;51.250;5.554;2022-12-17T15:51:08;-2.70;99.90
37274;DHT22;23161;51.250;5.554;2022-12-17T15:53:34;-2.50;99.90
37274;DHT22;23161;51.250;5.554;2022-12-17T15:56:01;-2.70;99.90
37274;DHT22;23161;51.250;5.554;2022-12-17T15:58:28;-2.80;99.90
37274;DHT22;23161;51.250;5.554;2022-12-17T16:00:54;-2.80;99.90
37274;DHT22;23161;51.250;5.554;2022-12-17T16:03:19;-2.80;99.90
37274;DHT22;23161;51.250;5.554;2022-12-17T16:05:45;-2.80;99.90
37274;DHT22;23161;51.250;5.554;2022-12-17T16:08:11;-2.90;99.90
37274;DHT22;23161;51.250;5.554;2022-12-17T16:10:38;-2.90;99.90
37274;DHT22;23161;51.250;5.554;2022-12-17T16:13:04;-2.80;99.90
37274;DHT22;23161;51.250;5.554;2022-12-17T16:15:30;-2.90;99.90
37274;DHT22;23161;51.250;5.554;2022-12-17T16:17:56;-2.80;99.90
37274;DHT22;23161;51.250;5.554;2022-12-17T16:20:22;-2.80;99.90
37274;DHT22;23161;51.250;5.554;2022-12-17T16:22:48;-2.80;99.90
37274;DHT22;23161;51.250;5.554;2022-12-17T16:25:15;-2.80;99.90
37274;DHT22;23161;51.250;5.554;2022-12-17T16:27:41;-2.80;99.90
37274;DHT22;23161;51.250;5.554;2022-12-17T16:30:07;-2.80;99.90
37274;DHT22;23161;51.250;5.554;2022-12-17T16:32:33;-2.90;99.90
37274;DHT22;23161;51.250;5.554;2022-12-17T16:34:59;-3.00;99.90
37274;DHT22;23161;51.250;5.554;2022-12-17T16:37:24;-3.00;99.90
37274;DHT22;23161;51.250;5.554;2022-12-17T16:39:50;-3.10;99.90
37274;DHT22;23161;51.250;5.554;2022-12-17T16:42:16;-3.00;99.90
37274;DHT22;23161;51.250;5.554;2022-12-17T16:44:42;-3.00;99.90
37274;DHT22;23161;51.250;5.554;2022-12-17T16:47:09;-3.10;99.90
37274;DHT22;23161;51.250;5.554;2022-12-17T16:49:35;-3.20;99.90
37274;DHT22;23161;51.250;5.554;2022-12-17T16:52:01;-3.30;99.90
37274;DHT22;23161;51.250;5.554;2022-12-17T16:54:30;-3.30;99.90
37274;DHT22;23161;51.250;5.554;2022-12-17T16:56:57;-3.30;99.90
37274;DHT22;23161;51.250;5.554;2022-12-17T16:59:22;-3.30;99.90
37274;DHT22;23161;51.250;5.554;2022-12-17T17:01:50;-3.30;99.90
37274;DHT22;23161;51.250;5.554;2022-12-17T17:04:18;-3.20;99.90
37274;DHT22;23161;51.250;5.554;2022-12-17T17:06:54;-3.20;99.90
37274;DHT22;23161;51.250;5.554;2022-12-17T17:09:21;-3.10;99.90
37274;DHT22;23161;51.250;5.554;2022-12-17T17:11:47;-3.00;99.90
37274;DHT22;23161;51.250;5.554;2022-12-17T17:14:13;-3.00;99.90
37274;DHT22;23161;51.250;5.554;2022-12-17T17:16:39;-3.00;99.90
37274;DHT22;23161;51.250;5.554;2022-12-17T17:19:05;-3.10;99.90
37274;DHT22;23161;51.250;5.554;2022-12-17T17:21:39;-3.10;99.90
37274;DHT22;23161;51.250;5.554;2022-12-17T17:24:11;-3.00;99.90
37274;DHT22;23161;51.250;5.554;2022-12-17T17:26:38;-3.00;99.90
37274;DHT22;23161;51.250;5.554;2022-12-17T17:29:04;-3.00;99.90
37274;DHT22;23161;51.250;5.554;2022-12-17T17:31:32;-3.00;99.90
37274;DHT22;23161;51.250;5.554;2022-12-17T17:33:58;-3.10;99.90
37274;DHT22;23161;51.250;5.554;2022-12-17T17:36:29;-3.10;99.90
37274;DHT22;23161;51.250;5.554;2022-12-17T17:38:56;-3.20;99.90
37274;DHT22;23161;51.250;5.554;2022-12-17T17:41:25;-3.20;99.90
37274;DHT22;23161;51.250;5.554;2022-12-17T17:43:56;-3.20;99.90
37274;DHT22;23161;51.250;5.554;2022-12-17T17:46:23;-3.20;99.90
37274;DHT22;23161;51.250;5.554;2022-12-17T17:48:49;-3.30;99.90
37274;DHT22;23161;51.250;5.554;2022-12-17T17:51:17;-3.20;99.90
37274;DHT22;23161;51.250;5.554;2022-12-17T17:53:45;-3.20;99.90
37274;DHT22;23161;51.250;5.554;2022-12-17T17:56:14;-3.10;99.90
37274;DHT22;23161;51.250;5.554;2022-12-17T17:58:51;-3.10;99.90
37274;DHT22;23161;51.250;5.554;2022-12-17T18:01:21;-3.10;99.90
37274;DHT22;23161;51.250;5.554;2022-12-17T18:03:47;-3.10;99.90
37274;DHT22;23161;51.250;5.554;2022-12-17T18:06:13;-3.20;99.90
37274;DHT22;23161;51.250;5.554;2022-12-17T18:08:40;-3.20;99.90
37274;DHT22;23161;51.250;5.554;2022-12-17T18:11:08;-3.20;99.90
37274;DHT22;23161;51.250;5.554;2022-12-17T18:13:34;-3.20;99.90
37274;DHT22;23161;51.250;5.554;2022-12-17T18:16:23;-3.20;99.90
37274;DHT22;23161;51.250;5.554;2022-12-17T18:18:51;-3.20;99.90
37274;DHT22;23161;51.250;5.554;2022-12-17T18:21:18;-3.20;99.90
37274;DHT22;23161;51.250;5.554;2022-12-17T18:23:44;-3.20;99.90
37274;DHT22;23161;51.250;5.554;2022-12-17T18:26:11;-3.30;99.90
37274;DHT22;23161;51.250;5.554;2022-12-17T18:28:41;-3.30;99.90
37274;DHT22;23161;51.250;5.554;2022-12-17T18:31:08;-3.30;99.90